Time;durP1;ratioP1;P1;durP2;ratioP2;P2;SDS_P1;SDS_P2;PMS_P1;PMS_P2;Temp;Humidity;BMP_temperature;BMP_pressure;BME280_temperature;BME280_humidity;BME280_pressure;Samples;Min_cycle;Max_cycle;Signal;HPM_P1;HPM_P2
2022/01/03 05:02:45;;;;;;;14.55;8.30;;;;;;;5.54;97.94;99676.69;4495564;31;148351;-77
2022/01/03 05:05:32;;;;;;;14.82;8.82;;;;;;;6.15;96.36;99678.34;4475629;32;33935;-77
2022/01/03 05:08:19;;;;;;;18.35;9.30;;;;;;;6.67;91.63;99685.12;4484673;32;34354;-77
2022/01/03 05:11:11;;;;;;;15.43;8.52;;;;;;;7.54;87.14;99671.50;4475305;32;34932;-77
2022/01/03 05:13:57;;;;;;;14.55;8.35;;;;;;;7.24;86.46;99666.37;4482329;31;34121;-77
2022/01/03 05:16:44;;;;;;;17.85;9.15;;;;;;;7.34;85.10;99680.72;4488305;32;35053;-77
2022/01/03 05:19:30;;;;;;;13.55;8.18;;;;;;;8.07;82.47;99665.91;4473948;32;35491;-77
2022/01/03 05:22:16;;;;;;;14.48;8.20;;;;;;;8.23;80.72;99660.25;4487016;32;35033;-78
2022/01/03 05:25:03;;;;;;;17.80;9.35;;;;;;;8.44;80.09;99652.59;4475212;32;35292;-78
2022/01/03 05:27:50;;;;;;;17.62;9.73;;;;;;;8.57;79.07;99657.31;4482263;32;35174;-77
2022/01/03 05:30:36;;;;;;;17.75;8.98;;;;;;;8.30;78.88;99641.59;4475936;32;35182;-77
2022/01/03 05:33:23;;;;;;;17.40;8.65;;;;;;;8.23;79.47;99641.16;4474085;32;34522;-77
2022/01/03 05:36:10;;;;;;;12.37;7.50;;;;;;;8.27;79.31;99634.00;4476710;32;35447;-77
2022/01/03 05:38:57;;;;;;;13.25;7.60;;;;;;;8.25;78.86;99637.03;4480060;32;33830;-77
2022/01/03 05:41:43;;;;;;;14.52;7.93;;;;;;;8.41;78.73;99636.81;4477587;32;34529;-78
2022/01/03 05:44:33;;;;;;;15.02;7.40;;;;;;;8.20;78.75;99631.62;4491130;31;34987;-77
2022/01/03 05:47:20;;;;;;;13.48;6.95;;;;;;;7.91;80.60;99639.94;4486584;32;35446;-77
2022/01/03 05:50:07;;;;;;;14.32;8.20;;;;;;;8.23;78.58;99641.16;4474025;32;34110;-77
2022/01/03 05:52:53;;;;;;;12.68;6.95;;;;;;;7.91;79.59;99644.59;4479746;32;34554;-77
2022/01/03 05:55:40;;;;;;;15.63;7.95;;;;;;;7.80;80.56;99639.28;4476205;32;35017;-77
2022/01/03 05:58:27;;;;;;;13.07;8.00;;;;;;;7.47;82.39;99643.75;4476472;32;34552;-77
2022/01/03 06:01:14;;;;;;;12.32;7.15;;;;;;;7.70;81.71;99654.94;4475285;32;34198;-77
2022/01/03 06:04:11;;;;;;;13.23;8.07;;;;;;;7.29;82.76;99652.69;4462877;32;34594;-77
2022/01/03 06:07:05;;;;;;;12.82;7.43;;;;;;;7.54;82.78;99649.69;4486446;32;35704;-77
2022/01/03 06:09:52;;;;;;;15.00;8.20;;;;;;;7.06;84.41;99657.00;4464849;32;34287;-77
2022/01/03 06:12:39;;;;;;;14.73;7.65;;;;;;;7.40;82.78;99651.50;4472172;32;33690;-77
2022/01/03 06:15:28;;;;;;;17.02;8.15;;;;;;;8.08;80.14;99633.97;4465702;32;34254;-78
2022/01/03 06:18:15;;;;;;;16.37;8.82;;;;;;;7.40;82.88;99656.94;4476027;32;35991;-77
2022/01/03 06:21:02;;;;;;;16.92;9.55;;;;;;;7.23;82.97;99635.59;4465890;32;34145;-77
2022/01/03 06:23:50;;;;;;;16.37;8.90;;;;;;;6.74;86.03;99639.31;4468712;32;34191;-77
2022/01/03 06:26:37;;;;;;;14.07;8.18;;;;;;;7.33;84.32;99631.94;4480120;32;34579;-77
2022/01/03 06:29:23;;;;;;;13.75;8.05;;;;;;;7.97;81.31;99641.50;4479800;32;35949;-78
2022/01/03 06:32:10;;;;;;;13.00;8.13;;;;;;;8.35;79.09;99644.25;4465028;32;35528;-76
2022/01/03 06:34:56;;;;;;;13.38;7.55;;;;;;;8.40;78.82;99668.78;4469971;32;34784;-77
2022/01/03 06:37:42;;;;;;;16.37;9.38;;;;;;;8.40;78.65;99673.44;4467236;32;34686;-76
2022/01/03 06:40:29;;;;;;;14.05;8.73;;;;;;;8.62;77.39;99681.81;4449607;32;34887;-77
2022/01/03 06:43:15;;;;;;;13.15;7.68;;;;;;;7.59;81.18;99682.31;4462998;32;34105;-77
2022/01/03 06:46:02;;;;;;;18.08;8.98;;;;;;;7.87;80.87;99679.81;4474157;32;34727;-77
2022/01/03 06:48:49;;;;;;;14.10;7.65;;;;;;;7.38;82.53;99686.41;4476520;32;34476;-77
2022/01/03 06:51:35;;;;;;;13.80;7.37;;;;;;;7.55;81.31;99675.84;4467450;32;34508;-77
2022/01/03 06:54:22;;;;;;;11.68;7.35;;;;;;;8.05;79.18;99662.69;4467876;32;34377;-77
2022/01/03 06:57:09;;;;;;;14.27;7.40;;;;;;;7.47;82.85;99646.47;4479467;32;34213;-78
2022/01/03 06:59:56;;;;;;;17.55;7.22;;;;;;;7.32;83.88;99647.47;4467470;32;35254;-77
2022/01/03 07:02:42;;;;;;;12.15;6.30;;;;;;;7.27;83.97;99630.38;4466411;32;35579;-78
2022/01/03 07:05:30;;;;;;;12.82;6.72;;;;;;;7.69;82.65;99615.16;4467535;32;35148;-77
2022/01/03 07:08:16;;;;;;;16.25;7.47;;;;;;;8.15;80.13;99617.25;4463358;32;34754;-78
2022/01/03 07:11:02;;;;;;;14.90;6.72;;;;;;;8.43;78.56;99613.56;4469401;32;35156;-78
2022/01/03 14:38:34;;;;;;;8.10;2.20;;;;;;;10.83;61.92;99638.00;4495701;31;146387;-76
2022/01/03 14:41:26;;;;;;;8.40;1.23;;;;;;;10.83;61.92;99638.00;4479358;32;34181;-75
2022/01/03 14:44:12;;;;;;;6.47;1.35;;;;;;;10.19;63.62;99643.59;4472545;32;34518;-76
2022/01/03 14:47:08;;;;;;;4.60;0.80;;;;;;;10.39;62.93;99647.00;4484508;31;35685;-78
2022/01/03 14:50:02;;;;;;;10.95;1.40;;;;;;;10.22;63.79;99651.19;4474873;32;34501;-77
2022/01/03 14:52:56;;;;;;;2.17;0.73;;;;;;;10.08;64.01;99655.88;4480748;32;33731;-77
2022/01/03 14:55:43;;;;;;;1.80;0.75;;;;;;;10.10;64.32;99653.62;4479391;32;35208;-77
2022/01/03 14:58:30;;;;;;;3.03;1.23;;;;;;;10.19;64.22;99640.84;4484754;32;36022;-76
2022/01/03 15:01:16;;;;;;;4.22;1.35;;;;;;;9.95;65.29;99649.31;4475598;32;34283;-76
2022/01/03 15:04:03;;;;;;;3.85;1.37;;;;;;;10.38;64.43;99659.88;4476281;32;34701;-77
2022/01/03 15:06:50;;;;;;;5.97;1.60;;;;;;;10.13;65.67;99662.06;4484583;32;34193;-76
2022/01/03 15:09:36;;;;;;;7.93;1.50;;;;;;;9.52;68.84;99659.78;4470550;32;34675;-77
2022/01/03 15:12:39;;;;;;;8.23;1.80;;;;;;;9.81;68.41;99665.72;4474377;31;34961;-76
2022/01/03 15:15:28;;;;;;;5.97;1.58;;;;;;;9.64;69.78;99668.28;4475977;32;34638;-76
2022/01/03 15:18:14;;;;;;;4.20;1.30;;;;;;;9.52;70.69;99670.72;4476032;32;36098;-76
2022/01/03 15:21:01;;;;;;;5.68;1.25;;;;;;;9.74;70.01;99664.53;4480099;32;34586;-76
2022/01/03 15:23:47;;;;;;;3.45;0.85;;;;;;;9.44;70.95;99683.97;4484901;31;35010;-78
2022/01/03 15:26:33;;;;;;;4.62;1.00;;;;;;;9.75;69.60;99686.09;4480959;31;33941;-77
2022/01/03 15:29:20;;;;;;;5.82;1.10;;;;;;;9.82;68.83;99680.25;4472522;32;33369;-78
2022/01/03 15:32:06;;;;;;;4.43;0.90;;;;;;;9.72;69.20;99681.25;4473343;32;35605;-76
2022/01/03 15:34:52;;;;;;;3.72;1.05;;;;;;;9.86;68.37;99673.84;4485280;31;34071;-77
2022/01/03 15:37:39;;;;;;;2.60;0.80;;;;;;;9.74;68.78;99680.97;4481507;31;35438;-76
2022/01/03 15:40:29;;;;;;;4.70;1.65;;;;;;;9.79;68.97;99683.56;4482502;31;35469;-77
2022/01/03 15:43:16;;;;;;;6.28;1.10;;;;;;;9.76;69.01;99678.72;4483186;32;34831;-77
2022/01/03 15:46:02;;;;;;;3.17;0.98;;;;;;;9.80;68.59;99671.53;4482039;32;34069;-77
2022/01/03 15:48:49;;;;;;;5.28;0.90;;;;;;;9.66;69.30;99682.47;4477245;32;34644;-76
2022/01/03 15:51:36;;;;;;;3.80;1.05;;;;;;;9.68;69.19;99669.31;4472433;32;35199;-77
2022/01/03 15:54:22;;;;;;;3.90;1.15;;;;;;;9.64;69.35;99662.81;4472512;32;34920;-76
2022/01/03 15:57:09;;;;;;;7.03;1.65;;;;;;;9.62;69.58;99660.38;4470617;32;34503;-77
2022/01/03 15:59:55;;;;;;;3.30;1.00;;;;;;;9.67;69.32;99667.66;4470962;32;34855;-74
2022/01/03 16:02:42;;;;;;;6.25;1.20;;;;;;;9.69;69.55;99671.72;4472506;32;34570;-76
2022/01/03 16:05:30;;;;;;;3.10;1.27;;;;;;;9.61;69.91;99669.69;4473603;32;37467;-79
2022/01/03 16:08:17;;;;;;;4.50;1.35;;;;;;;9.72;69.56;99659.34;4472300;32;33286;-76
2022/01/03 16:11:05;;;;;;;12.65;3.05;;;;;;;9.61;70.15;99663.41;4472823;32;34161;-76
2022/01/03 16:14:10;;;;;;;3.62;1.40;;;;;;;9.66;70.02;99657.84;4461074;32;35078;-81
2022/01/03 16:16:57;;;;;;;4.68;1.42;;;;;;;9.42;71.14;99666.22;4471074;32;34188;-76
2022/01/03 16:19:43;;;;;;;4.60;1.50;;;;;;;9.54;70.79;99661.09;4473941;32;34648;-77
2022/01/03 16:22:30;;;;;;;4.47;0.90;;;;;;;9.51;70.70;99653.50;4471101;32;32942;-76
2022/01/03 16:25:17;;;;;;;3.00;1.15;;;;;;;9.49;70.85;99654.91;4462360;32;34222;-75
2022/01/03 16:28:05;;;;;;;3.35;1.10;;;;;;;9.50;70.39;99649.13;4459064;32;34561;-77
2022/01/03 16:30:51;;;;;;;6.03;1.37;;;;;;;9.52;70.32;99644.16;4466146;32;34683;-77
2022/01/03 16:33:38;;;;;;;4.75;1.20;;;;;;;9.52;70.29;99648.84;4465370;32;35088;-84
2022/01/03 16:36:24;;;;;;;7.75;1.27;;;;;;;9.52;70.24;99643.34;4476248;32;35538;-82
2022/01/03 16:39:11;;;;;;;5.07;1.10;;;;;;;9.57;70.19;99637.78;4471326;32;34920;-79
2022/01/03 16:41:57;;;;;;;4.65;0.88;;;;;;;9.55;70.39;99649.03;4471815;32;35095;-77
2022/01/03 16:44:46;;;;;;;4.25;1.40;;;;;;;9.57;70.11;99640.53;4474707;32;35056;-76
2022/01/03 16:47:33;;;;;;;6.40;1.15;;;;;;;9.50;70.46;99645.56;4471134;32;34226;-79
2022/01/03 16:50:19;;;;;;;5.68;1.58;;;;;;;9.62;69.92;99640.41;4474307;32;36006;-78
2022/01/03 16:53:07;;;;;;;3.78;1.35;;;;;;;9.48;70.63;99642.31;4462530;32;35005;-76
2022/01/03 16:55:53;;;;;;;2.90;1.35;;;;;;;9.46;70.72;99646.19;4465533;32;34065;-79
2022/01/03 16:58:40;;;;;;;6.65;1.27;;;;;;;9.39;70.70;99651.25;4464250;32;35247;-76
2022/01/03 17:01:27;;;;;;;4.20;1.45;;;;;;;9.32;71.15;99647.28;4470718;32;35568;-76
2022/01/03 17:04:13;;;;;;;9.20;2.53;;;;;;;9.35;71.12;99646.69;4464073;32;34143;-78
2022/01/03 17:06:59;;;;;;;6.30;1.60;;;;;;;9.50;70.57;99640.09;4462559;32;34067;-83
2022/01/03 17:09:46;;;;;;;5.80;2.10;;;;;;;9.38;70.97;99649.63;4463942;32;34183;-78
2022/01/03 17:12:33;;;;;;;5.75;1.60;;;;;;;9.42;71.11;99653.38;4464401;32;35912;-76
2022/01/03 17:15:19;;;;;;;6.70;1.90;;;;;;;9.33;71.40;99652.44;4462995;32;34401;-77
2022/01/03 17:18:07;;;;;;;3.90;1.52;;;;;;;9.37;71.18;99653.47;4474034;32;34880;-77
2022/01/03 17:20:55;;;;;;;6.30;1.27;;;;;;;9.40;71.30;99666.53;4464133;32;34121;-77
2022/01/03 17:23:42;;;;;;;6.30;1.55;;;;;;;9.44;71.35;99662.09;4450745;32;35887;-82
2022/01/03 17:26:29;;;;;;;4.53;1.37;;;;;;;9.51;70.91;99661.69;4465100;32;35447;-79
2022/01/03 17:29:16;;;;;;;4.22;1.20;;;;;;;9.49;70.83;99676.78;4469612;32;34686;-80
2022/01/03 17:32:03;;;;;;;6.03;1.30;;;;;;;9.55;70.70;99681.03;4462819;32;35540;-79
2022/01/03 17:34:50;;;;;;;5.72;1.60;;;;;;;9.56;70.79;99663.50;4461402;32;35020;-77
2022/01/03 17:37:36;;;;;;;4.10;1.20;;;;;;;9.54;71.03;99673.97;4472560;32;34615;-79
2022/01/03 17:40:22;;;;;;;10.40;2.25;;;;;;;9.45;71.23;99660.97;4469798;32;34935;-78
2022/01/03 17:43:09;;;;;;;4.95;1.48;;;;;;;9.42;71.33;99671.69;4460733;32;35491;-79
2022/01/03 17:45:55;;;;;;;4.22;1.50;;;;;;;9.55;70.78;99654.50;4446444;32;36180;-78
2022/01/03 17:48:43;;;;;;;6.28;1.50;;;;;;;9.52;71.16;99657.84;4466530;32;34170;-77
2022/01/03 17:51:33;;;;;;;7.30;1.55;;;;;;;9.48;71.45;99669.69;4452793;32;34978;-78
2022/01/03 17:54:19;;;;;;;7.00;2.03;;;;;;;9.37;71.41;99669.88;4460982;32;34481;-78
2022/01/03 17:57:06;;;;;;;5.22;1.70;;;;;;;9.42;71.37;99667.06;4459295;32;34627;-79
2022/01/03 18:00:01;;;;;;;5.53;1.40;;;;;;;9.39;71.14;99673.13;4467470;32;34223;-77
2022/01/03 18:02:50;;;;;;;5.22;1.62;;;;;;;9.41;71.83;99668.16;4459094;32;35073;-77
2022/01/03 18:05:36;;;;;;;5.20;2.08;;;;;;;9.37;71.77;99672.63;4459178;32;34490;-79
2022/01/03 18:08:23;;;;;;;7.28;1.85;;;;;;;9.53;71.23;99672.31;4462362;32;35102;-77
2022/01/03 18:11:13;;;;;;;6.53;1.52;;;;;;;9.36;71.50;99671.00;4474523;32;33346;-77
2022/01/03 18:14:00;;;;;;;4.85;1.60;;;;;;;9.42;71.60;99672.53;4467325;32;34796;-77
2022/01/03 18:16:46;;;;;;;5.82;2.10;;;;;;;9.31;72.15;99664.81;4468045;32;34450;-77
2022/01/03 18:19:35;;;;;;;9.70;2.70;;;;;;;9.43;72.03;99663.19;4465776;32;35014;-77
2022/01/03 18:22:21;;;;;;;7.35;2.30;;;;;;;9.47;71.82;99671.59;4448935;32;34382;-77
2022/01/03 18:25:09;;;;;;;6.78;2.78;;;;;;;9.16;72.86;99671.34;4452015;32;33992;-77
2022/01/03 18:27:56;;;;;;;6.10;2.90;;;;;;;9.28;72.29;99666.25;4468021;32;34688;-77
2022/01/03 18:30:43;;;;;;;6.82;2.35;;;;;;;9.05;73.54;99673.47;4462407;32;34658;-77
2022/01/03 18:33:29;;;;;;;6.43;2.20;;;;;;;9.08;73.34;99663.84;4462901;32;34502;-78
2022/01/03 18:36:16;;;;;;;7.82;1.90;;;;;;;9.18;72.80;99677.34;4470757;32;34669;-78
2022/01/03 18:39:03;;;;;;;7.07;2.12;;;;;;;9.20;72.92;99669.66;4466201;32;35386;-78
2022/01/03 18:41:52;;;;;;;8.85;2.70;;;;;;;9.12;73.31;99673.09;4465989;32;34972;-79
2022/01/03 18:44:39;;;;;;;7.82;4.15;;;;;;;9.07;73.58;99673.97;4465018;32;35370;-79
2022/01/03 18:47:25;;;;;;;7.35;2.90;;;;;;;8.99;73.84;99677.38;4471280;32;33863;-79
2022/01/03 18:50:12;;;;;;;8.35;2.80;;;;;;;9.19;73.04;99678.94;4472877;32;34562;-80
2022/01/03 18:52:58;;;;;;;6.75;2.37;;;;;;;9.53;71.62;99684.06;4461763;32;34569;-79
2022/01/03 18:55:46;;;;;;;8.55;3.12;;;;;;;9.87;70.37;99691.88;4465791;32;35418;-79
2022/01/03 18:58:32;;;;;;;10.38;3.60;;;;;;;9.29;73.14;99686.19;4460849;32;34883;-78
2022/01/03 19:01:19;;;;;;;9.80;4.55;;;;;;;9.14;74.08;99688.06;4463807;32;35206;-77
2022/01/03 19:04:09;;;;;;;8.25;3.55;;;;;;;8.84;75.97;99694.84;4473547;32;34527;-78
2022/01/03 19:06:55;;;;;;;8.57;2.78;;;;;;;8.50;78.23;99706.03;4459623;32;34043;-77
2022/01/03 19:09:41;;;;;;;7.45;2.75;;;;;;;8.58;78.45;99707.28;4462481;32;34938;-75
2022/01/03 19:12:27;;;;;;;3.33;1.40;;;;;;;8.69;78.04;99706.84;4464904;32;34646;-78
2022/01/03 19:15:14;;;;;;;6.35;1.35;;;;;;;8.74;79.92;99709.50;4460282;32;35868;-78
2022/01/03 19:18:00;;;;;;;5.45;1.30;;;;;;;8.54;82.25;99718.81;4465043;32;34426;-78
2022/01/03 19:20:47;;;;;;;5.62;2.08;;;;;;;8.53;83.69;99711.72;4471155;32;33736;-79
2022/01/03 19:23:36;;;;;;;3.97;1.37;;;;;;;8.17;86.44;99718.72;4466364;32;34259;-78
2022/01/03 19:26:22;;;;;;;5.47;2.45;;;;;;;8.14;87.62;99719.31;4473408;32;35773;-77
2022/01/03 19:29:10;;;;;;;2.10;1.33;;;;;;;8.18;87.96;99714.91;4469973;32;34355;-78
2022/01/03 19:31:57;;;;;;;3.55;1.35;;;;;;;8.21;87.39;99709.69;4463704;32;33776;-79
2022/01/03 19:37:56;;;;;;;6.35;1.50;;;;;;;8.26;88.17;99684.25;4461415;32;35949;-77
2022/01/03 19:40:45;;;;;;;3.67;1.20;;;;;;;8.21;87.72;99679.66;4461616;32;34555;-81
2022/01/03 19:43:31;;;;;;;6.15;1.20;;;;;;;8.09;88.28;99677.34;4454605;32;34167;-79
2022/01/03 19:46:18;;;;;;;4.07;0.90;;;;;;;8.05;86.93;99673.59;4471742;32;34427;-78
2022/01/03 19:49:04;;;;;;;5.07;1.50;;;;;;;8.09;87.58;99666.44;4464270;32;35932;-79
2022/01/03 19:51:51;;;;;;;7.82;2.47;;;;;;;7.98;87.95;99664.16;4464996;32;34390;-79
2022/01/03 19:54:37;;;;;;;7.97;2.42;;;;;;;8.01;88.27;99669.81;4464321;32;33619;-80
2022/01/03 19:57:24;;;;;;;4.90;1.90;;;;;;;8.09;87.16;99654.72;4470164;32;35164;-78
2022/01/03 20:00:13;;;;;;;3.55;1.10;;;;;;;7.91;89.12;99661.75;4472472;32;35903;-79
2022/01/03 20:02:59;;;;;;;2.35;1.10;;;;;;;7.98;88.55;99658.69;4465743;32;34382;-80
2022/01/03 20:05:46;;;;;;;4.10;0.93;;;;;;;8.08;87.85;99666.72;4467877;32;33006;-79
2022/01/03 20:08:32;;;;;;;3.92;1.10;;;;;;;8.03;88.00;99670.34;4469365;32;34202;-79
2022/01/03 20:11:18;;;;;;;2.55;0.98;;;;;;;7.98;88.80;99667.69;4464866;32;34571;-77
2022/01/03 20:14:06;;;;;;;3.67;1.40;;;;;;;8.05;89.07;99668.16;4462208;32;35659;-78
2022/01/03 20:16:52;;;;;;;7.20;1.37;;;;;;;8.02;88.94;99679.63;4461334;32;34070;-80
2022/01/03 20:19:39;;;;;;;4.78;1.50;;;;;;;8.19;87.54;99672.87;4462237;32;35217;-78
2022/01/03 20:22:25;;;;;;;6.57;1.33;;;;;;;8.15;87.55;99688.22;4467904;32;34533;-80
2022/01/03 20:25:22;;;;;;;4.28;1.17;;;;;;;8.21;87.73;99678.84;4467408;32;35371;-79
2022/01/03 20:28:08;;;;;;;6.12;1.50;;;;;;;8.19;87.68;99679.13;4466491;32;33847;-78
2022/01/03 20:30:57;;;;;;;4.28;0.80;;;;;;;8.19;87.77;99675.59;4461004;32;34155;-80
2022/01/03 20:33:44;;;;;;;5.12;0.98;;;;;;;8.49;86.81;99677.91;4465468;32;33777;-78
2022/01/03 20:36:31;;;;;;;5.78;1.30;;;;;;;8.24;88.51;99675.53;4463121;32;34600;-79
2022/01/03 20:39:17;;;;;;;6.93;1.12;;;;;;;8.16;89.70;99673.44;4469096;32;34751;-79
2022/01/03 20:42:04;;;;;;;5.78;1.50;;;;;;;8.22;90.61;99661.34;4468130;32;34544;-79
2022/01/03 20:44:51;;;;;;;7.68;1.42;;;;;;;8.00;91.85;99668.22;4466352;32;35626;-79
2022/01/03 20:47:38;;;;;;;6.37;1.90;;;;;;;7.93;92.51;99665.00;4455124;32;34427;-78
2022/01/03 20:50:24;;;;;;;7.60;1.75;;;;;;;8.19;91.93;99667.41;4464742;32;32922;-78
2022/01/03 20:53:10;;;;;;;6.12;1.75;;;;;;;8.35;90.32;99668.81;4455409;32;34095;-78
2022/01/03 20:55:57;;;;;;;7.25;2.00;;;;;;;8.32;89.89;99656.56;4466345;32;34703;-79
2022/01/03 20:58:46;;;;;;;4.05;2.00;;;;;;;8.16;90.90;99663.34;4472471;32;34364;-78
2022/01/03 21:01:34;;;;;;;6.20;1.83;;;;;;;8.05;91.58;99657.22;4464469;32;34077;-78
2022/01/03 21:04:20;;;;;;;7.70;2.70;;;;;;;8.48;89.11;99659.91;4467268;32;34177;-78
2022/01/03 21:07:07;;;;;;;7.35;2.87;;;;;;;8.55;88.89;99662.28;4463230;32;34794;-78
2022/01/03 21:09:52;;;;;;;8.65;2.62;;;;;;;8.18;90.42;99671.25;4463212;32;34249;-78
2022/01/03 21:12:40;;;;;;;5.43;2.15;;;;;;;8.57;88.73;99676.44;4473492;32;36845;-78
2022/01/03 21:15:27;;;;;;;5.32;1.67;;;;;;;8.11;90.55;99691.53;4472143;32;33738;-78
2022/01/03 21:18:13;;;;;;;4.70;1.60;;;;;;;8.04;92.16;99688.34;4465129;32;35935;-78
2022/01/03 21:21:00;;;;;;;11.73;1.80;;;;;;;7.84;93.66;99683.94;4462926;32;34404;-78
2022/01/03 21:23:46;;;;;;;8.00;1.60;;;;;;;8.21;92.91;99684.31;4463375;32;34647;-79
2022/01/03 21:26:33;;;;;;;5.80;1.65;;;;;;;8.01;93.30;99686.19;4466441;32;34685;-78
2022/01/03 21:29:19;;;;;;;8.52;1.75;;;;;;;7.72;96.02;99694.47;4465242;32;34915;-75
2022/01/03 21:32:06;;;;;;;7.18;1.85;;;;;;;7.91;95.06;99686.31;4476106;32;34616;-75
